Time;durP1;ratioP1;P1;durP2;ratioP2;P2;SDS_P1;SDS_P2;PMS_P1;PMS_P2;Temp;Humidity;BMP_temperature;BMP_pressure;BME280_temperature;BME280_humidity;BME280_pressure;Samples;Min_cycle;Max_cycle;Signal;HPM_P1;HPM_P2
2023/10/23 00:02:01;;;;;;;8.82;4.85;;;8.20;99.90;;;;;;4796260;29;20066;-59
2023/10/23 00:04:27;;;;;;;11.40;4.65;;;8.10;99.90;;;;;;4795611;29;20126;-59
2023/10/23 00:06:52;;;;;;;10.60;4.90;;;8.20;99.90;;;;;;4794753;29;20055;-58
2023/10/23 00:09:18;;;;;;;7.78;4.50;;;8.10;99.90;;;;;;4795562;29;20063;-58
2023/10/23 00:11:44;;;;;;;9.77;5.00;;;8.20;99.90;;;;;;4796186;29;20051;-59
2023/10/23 00:14:09;;;;;;;10.35;5.18;;;8.20;99.90;;;;;;4795457;29;20051;-59
2023/10/23 00:16:35;;;;;;;7.68;4.65;;;8.10;99.90;;;;;;4795760;29;20147;-59
2023/10/23 00:19:01;;;;;;;9.30;4.75;;;8.20;99.90;;;;;;4796006;29;20039;-59
2023/10/23 00:21:26;;;;;;;9.80;4.50;;;8.10;99.90;;;;;;4795510;29;20051;-59
2023/10/23 00:23:52;;;;;;;7.82;4.65;;;8.10;99.90;;;;;;4795616;29;20126;-59
2023/10/23 00:26:18;;;;;;;8.32;4.80;;;8.10;99.90;;;;;;4794862;29;20051;-59
2023/10/23 00:28:43;;;;;;;8.05;5.10;;;8.10;99.90;;;;;;4795877;29;20104;-59
2023/10/23 00:31:09;;;;;;;8.90;4.90;;;8.10;99.90;;;;;;4795078;29;20043;-59
2023/10/23 00:33:35;;;;;;;9.02;5.75;;;8.00;99.90;;;;;;4794812;29;20110;-59
2023/10/23 00:36:00;;;;;;;7.75;5.10;;;8.10;99.90;;;;;;4795393;29;20051;-59
2023/10/23 00:38:28;;;;;;;7.90;4.40;;;8.10;99.90;;;;;;4794906;29;20067;-59
2023/10/23 00:40:54;;;;;;;11.18;5.07;;;8.00;99.90;;;;;;4795749;29;20083;-59
2023/10/23 00:43:22;;;;;;;8.75;5.50;;;8.10;99.90;;;;;;4795127;29;20043;-59
2023/10/23 00:46:00;;;;;;;9.80;5.60;;;8.00;99.90;;;;;;4795325;29;20055;-59
2023/10/23 00:48:27;;;;;;;10.18;5.50;;;8.10;99.90;;;;;;4793857;29;20385;-58
2023/10/23 00:50:58;;;;;;;8.82;5.75;;;8.00;99.90;;;;;;4795548;29;20062;-58
2023/10/23 00:53:27;;;;;;;8.60;5.07;;;8.10;99.90;;;;;;4793596;30;20047;-58
2023/10/23 00:55:56;;;;;;;8.77;5.13;;;8.00;99.90;;;;;;4794654;29;20043;-59
2023/10/23 00:58:26;;;;;;;7.75;4.97;;;8.00;99.90;;;;;;4793760;29;20063;-59
2023/10/23 01:00:54;;;;;;;10.27;5.75;;;8.00;99.90;;;;;;4794525;29;20074;-59
2023/10/23 01:03:20;;;;;;;9.23;5.50;;;8.00;99.90;;;;;;4795618;29;20047;-59
2023/10/23 01:05:45;;;;;;;10.60;5.60;;;8.00;99.90;;;;;;4794516;29;20047;-59
2023/10/23 01:08:11;;;;;;;9.88;4.97;;;8.00;99.90;;;;;;4794993;29;20085;-59
2023/10/23 01:10:37;;;;;;;9.20;5.70;;;8.00;99.90;;;;;;4795003;29;20051;-58
2023/10/23 01:13:09;;;;;;;10.13;5.57;;;8.00;99.90;;;;;;4794560;29;20489;-59
2023/10/23 01:15:36;;;;;;;8.73;5.53;;;8.00;99.90;;;;;;4794778;29;20547;-58
2023/10/23 01:18:03;;;;;;;9.02;5.20;;;7.90;99.90;;;;;;4793250;29;20078;-58
2023/10/23 01:20:29;;;;;;;8.48;5.50;;;7.90;99.90;;;;;;4793250;30;20138;-58
2023/10/23 01:22:59;;;;;;;8.90;5.43;;;7.80;99.90;;;;;;4794278;29;20047;-58
2023/10/23 01:25:25;;;;;;;10.73;6.07;;;7.80;99.90;;;;;;4794731;29;20629;-58
2023/10/23 01:27:51;;;;;;;7.95;5.10;;;7.80;99.90;;;;;;4794689;29;20048;-58
2023/10/23 01:30:17;;;;;;;8.15;5.35;;;7.80;99.90;;;;;;4794560;29;20071;-58
2023/10/23 01:32:43;;;;;;;10.30;5.65;;;7.70;99.90;;;;;;4794310;29;20050;-58
2023/10/23 01:35:10;;;;;;;9.93;5.32;;;7.70;99.90;;;;;;4794096;29;20051;-58
2023/10/23 01:37:36;;;;;;;9.18;5.80;;;7.70;99.90;;;;;;4794712;29;20106;-57
2023/10/23 01:40:03;;;;;;;10.60;5.82;;;7.70;99.90;;;;;;4792668;30;20047;-58
2023/10/23 01:42:30;;;;;;;9.38;5.60;;;7.80;99.90;;;;;;4794398;29;20086;-58
2023/10/23 01:44:57;;;;;;;9.57;6.50;;;7.70;99.90;;;;;;4794189;29;20065;-60
2023/10/23 01:47:23;;;;;;;10.88;6.65;;;7.70;99.90;;;;;;4794080;29;20043;-58
2023/10/23 01:49:49;;;;;;;10.57;6.07;;;7.80;99.90;;;;;;4793777;29;20043;-58
2023/10/23 01:52:15;;;;;;;11.07;6.13;;;7.70;99.90;;;;;;4793760;29;20079;-58
2023/10/23 01:54:41;;;;;;;10.50;5.93;;;7.70;99.90;;;;;;4793961;29;20405;-58
2023/10/23 01:57:07;;;;;;;10.18;6.50;;;7.70;99.90;;;;;;4793727;29;20178;-58
2023/10/23 01:59:32;;;;;;;9.65;6.75;;;7.70;99.90;;;;;;4794137;29;20493;-59
2023/10/23 02:01:58;;;;;;;10.60;5.82;;;7.80;99.90;;;;;;4793941;29;20481;-58
2023/10/23 02:04:23;;;;;;;9.65;6.30;;;7.70;99.90;;;;;;4793956;29;20409;-58
2023/10/23 02:06:49;;;;;;;10.85;6.25;;;7.70;99.90;;;;;;4793528;29;20054;-58
2023/10/23 02:09:16;;;;;;;12.88;6.93;;;7.70;99.90;;;;;;4792638;30;20043;-58
2023/10/23 02:11:41;;;;;;;11.02;6.20;;;7.70;99.90;;;;;;4792721;30;20051;-56
2023/10/23 02:14:08;;;;;;;13.25;6.70;;;7.70;99.90;;;;;;4793507;29;20043;-58
2023/10/23 02:16:34;;;;;;;11.00;6.57;;;7.70;99.90;;;;;;4793826;29;20065;-58
2023/10/23 02:19:00;;;;;;;10.75;5.80;;;7.70;99.90;;;;;;4792276;30;20083;-58
2023/10/23 02:21:25;;;;;;;12.35;7.00;;;7.70;99.90;;;;;;4793757;29;20051;-58
2023/10/23 02:23:51;;;;;;;13.43;6.82;;;7.80;99.90;;;;;;4792096;30;20035;-58
2023/10/23 02:26:18;;;;;;;11.35;6.50;;;7.60;99.90;;;;;;4793531;29;20107;-59
2023/10/23 02:28:44;;;;;;;11.20;6.13;;;7.60;99.90;;;;;;4793830;29;20104;-58
2023/10/23 02:31:09;;;;;;;9.00;5.93;;;7.60;99.90;;;;;;4793108;29;20055;-58
2023/10/23 02:33:36;;;;;;;10.32;6.32;;;7.60;99.90;;;;;;4793658;29;20047;-59
2023/10/23 02:36:02;;;;;;;8.57;6.07;;;7.60;99.90;;;;;;4793671;29;20050;-58
2023/10/23 02:38:28;;;;;;;10.50;6.63;;;7.60;99.90;;;;;;4793128;29;20059;-58
2023/10/23 02:40:54;;;;;;;9.95;6.40;;;7.50;99.90;;;;;;4793463;29;20055;-58
2023/10/23 02:43:20;;;;;;;9.60;6.18;;;7.60;99.90;;;;;;4793555;29;20043;-58
2023/10/23 02:45:46;;;;;;;9.38;5.97;;;7.50;99.90;;;;;;4793097;29;20053;-58
2023/10/23 02:48:13;;;;;;;11.23;6.07;;;7.50;99.90;;;;;;4793251;29;20079;-57
2023/10/23 02:50:39;;;;;;;11.00;6.00;;;7.50;99.90;;;;;;4793314;29;20061;-59
2023/10/23 02:53:06;;;;;;;12.65;6.30;;;7.40;99.90;;;;;;4793353;29;20051;-58
2023/10/23 02:55:32;;;;;;;10.57;5.93;;;7.40;99.90;;;;;;4792667;29;20117;-58
2023/10/23 02:57:57;;;;;;;10.77;6.40;;;7.40;99.90;;;;;;4792897;29;20091;-58
2023/10/23 03:00:23;;;;;;;9.02;5.93;;;7.50;99.90;;;;;;4793088;29;20044;-58
2023/10/23 03:02:50;;;;;;;10.38;6.45;;;7.40;99.90;;;;;;4793285;29;20054;-58
2023/10/23 03:05:16;;;;;;;8.77;5.65;;;7.40;99.90;;;;;;4792921;29;20134;-58
2023/10/23 03:07:43;;;;;;;8.68;5.93;;;7.30;99.90;;;;;;4793259;29;20073;-58
2023/10/23 03:10:09;;;;;;;10.63;6.10;;;7.40;99.90;;;;;;4793355;29;20054;-58
2023/10/23 03:12:38;;;;;;;9.93;5.97;;;7.30;99.90;;;;;;4796051;29;20047;-57
2023/10/23 03:15:04;;;;;;;13.00;5.93;;;7.40;99.90;;;;;;4797083;29;20055;-58
2023/10/23 03:17:30;;;;;;;11.55;6.32;;;7.40;99.90;;;;;;4796455;29;20055;-58
2023/10/23 03:19:56;;;;;;;9.85;6.38;;;7.40;99.90;;;;;;4796551;29;20469;-57
2023/10/23 03:22:22;;;;;;;10.98;6.40;;;7.40;99.90;;;;;;4795223;29;20124;-58
2023/10/23 03:24:47;;;;;;;10.32;6.32;;;7.40;99.90;;;;;;4796703;29;20253;-57
2023/10/23 03:27:13;;;;;;;9.43;6.05;;;7.30;99.90;;;;;;4796697;29;20046;-58
2023/10/23 03:29:43;;;;;;;9.02;5.95;;;7.30;99.90;;;;;;4796322;29;20504;-58
2023/10/23 03:32:08;;;;;;;10.35;5.97;;;7.30;99.90;;;;;;4795709;30;20061;-58
2023/10/23 03:34:34;;;;;;;10.32;6.07;;;7.30;99.90;;;;;;4796073;29;20074;-58
2023/10/23 03:37:00;;;;;;;9.68;6.38;;;7.30;99.90;;;;;;4796505;29;20047;-58
2023/10/23 03:39:25;;;;;;;10.05;6.10;;;7.30;99.90;;;;;;4795839;29;20063;-58
2023/10/23 03:41:51;;;;;;;9.73;6.63;;;7.20;99.90;;;;;;4796185;29;20055;-58
2023/10/23 03:44:17;;;;;;;9.82;5.82;;;7.20;99.90;;;;;;4796309;29;20066;-57
2023/10/23 03:46:42;;;;;;;10.30;6.28;;;7.10;99.90;;;;;;4796195;29;20138;-58
2023/10/23 03:49:08;;;;;;;10.30;6.07;;;7.30;99.90;;;;;;4796539;29;20417;-58
2023/10/23 03:51:34;;;;;;;9.48;5.97;;;7.20;99.90;;;;;;4796024;29;20047;-58
2023/10/23 03:54:00;;;;;;;10.68;6.85;;;7.20;99.90;;;;;;4796213;29;20051;-58
2023/10/23 03:56:26;;;;;;;9.32;6.43;;;7.20;99.90;;;;;;4795200;29;20170;-58
2023/10/23 03:58:51;;;;;;;10.38;6.07;;;7.10;99.90;;;;;;4796408;29;20055;-58
2023/10/23 04:01:17;;;;;;;9.30;6.82;;;7.20;99.90;;;;;;4794252;30;20210;-58
2023/10/23 04:03:43;;;;;;;10.18;6.28;;;7.10;99.90;;;;;;4796293;29;20044;-58
2023/10/23 04:06:08;;;;;;;10.32;6.60;;;7.20;99.90;;;;;;4796334;29;20102;-58
2023/10/23 04:08:34;;;;;;;10.40;6.65;;;7.20;99.90;;;;;;4799770;29;20776;-58
2023/10/23 04:11:00;;;;;;;10.07;6.80;;;7.20;99.90;;;;;;4812693;29;20137;-58
2023/10/23 04:13:25;;;;;;;11.60;7.03;;;7.20;99.90;;;;;;4813561;29;20050;-58
2023/10/23 04:15:57;;;;;;;10.60;7.40;;;7.20;99.90;;;;;;4813891;29;20059;-57
2023/10/23 04:18:25;;;;;;;12.90;6.43;;;7.20;99.90;;;;;;4813298;29;20050;-57
2023/10/23 04:21:00;;;;;;;8.93;6.47;;;7.20;99.90;;;;;;4813690;29;20062;-57
2023/10/23 04:23:26;;;;;;;10.57;6.43;;;7.20;99.90;;;;;;4813888;29;20054;-57
2023/10/23 04:25:55;;;;;;;9.82;6.55;;;7.20;99.90;;;;;;4813160;29;20055;-58
2023/10/23 04:28:22;;;;;;;12.15;7.10;;;7.20;99.90;;;;;;4813984;29;20038;-58
2023/10/23 04:30:48;;;;;;;11.30;6.93;;;7.10;99.90;;;;;;4812995;29;20035;-58
2023/10/23 04:33:21;;;;;;;10.45;6.70;;;7.00;99.90;;;;;;4806666;29;20051;-58
2023/10/23 04:35:51;;;;;;;10.85;7.50;;;7.10;99.90;;;;;;4794992;30;20591;-57
2023/10/23 04:38:17;;;;;;;10.85;6.78;;;7.00;99.90;;;;;;4795173;29;20051;-60
2023/10/23 04:40:44;;;;;;;13.68;7.05;;;7.00;99.90;;;;;;4795640;29;20058;-60
2023/10/23 04:43:10;;;;;;;10.85;7.32;;;7.10;99.90;;;;;;4793613;30;20099;-60
2023/10/23 04:45:36;;;;;;;10.48;7.25;;;7.00;99.90;;;;;;4795664;29;20066;-60
2023/10/23 04:48:02;;;;;;;10.25;6.88;;;7.00;99.90;;;;;;4798492;29;20431;-58
2023/10/23 04:50:31;;;;;;;10.98;7.32;;;7.00;99.90;;;;;;4812455;29;20046;-58
2023/10/23 04:52:59;;;;;;;12.90;7.60;;;7.00;99.90;;;;;;4813021;29;20138;-58
2023/10/23 04:55:25;;;;;;;11.98;7.20;;;7.10;99.90;;;;;;4813115;29;20054;-58
2023/10/23 04:57:50;;;;;;;12.10;7.30;;;7.00;99.90;;;;;;4813045;29;20137;-55
2023/10/23 05:00:18;;;;;;;10.00;7.38;;;7.00;99.90;;;;;;4810547;29;20514;-57
2023/10/23 05:02:46;;;;;;;10.23;7.15;;;6.90;99.90;;;;;;4794252;29;20049;-58
2023/10/23 05:05:12;;;;;;;9.48;6.40;;;7.00;99.90;;;;;;4794321;29;20190;-57
2023/10/23 05:07:38;;;;;;;10.07;7.00;;;6.90;99.90;;;;;;4795337;29;20585;-58
2023/10/23 05:10:06;;;;;;;10.20;6.47;;;6.90;99.90;;;;;;4795991;29;20112;-58
2023/10/23 05:12:31;;;;;;;9.75;6.22;;;6.80;99.90;;;;;;4793425;29;20044;-57
2023/10/23 05:14:57;;;;;;;10.73;7.13;;;7.00;99.90;;;;;;4803765;29;20051;-58
2023/10/23 05:17:24;;;;;;;11.80;6.90;;;6.90;99.90;;;;;;4810151;29;20138;-59
2023/10/23 05:19:50;;;;;;;12.13;6.50;;;6.80;99.90;;;;;;4794717;29;20055;-60
2023/10/23 05:22:15;;;;;;;10.15;6.80;;;6.70;99.90;;;;;;4795354;29;20051;-59
2023/10/23 05:24:47;;;;;;;11.95;6.95;;;6.70;99.90;;;;;;4794236;29;20442;-59
2023/10/23 05:27:14;;;;;;;;;;;6.80;99.90;;;;;;4794947;29;20088;-59
2023/10/23 05:29:39;;;;;;;10.85;5.90;;;6.80;99.90;;;;;;4794566;29;19926;-59
2023/10/23 05:32:06;;;;;;;9.48;6.38;;;6.60;99.90;;;;;;4794818;29;20151;-57
2023/10/23 05:34:31;;;;;;;10.95;7.28;;;6.60;99.90;;;;;;4789174;29;20065;-59
2023/10/23 05:36:57;;;;;;;9.55;6.50;;;6.60;99.90;;;;;;4790970;29;20051;-61
2023/10/23 05:39:23;;;;;;;10.20;6.95;;;6.70;99.90;;;;;;4790434;29;20126;-60
2023/10/23 05:41:48;;;;;;;10.95;6.45;;;6.60;99.90;;;;;;4791033;29;20047;-60
2023/10/23 05:44:14;;;;;;;11.27;7.43;;;6.70;99.90;;;;;;4790804;29;20051;-59
2023/10/23 05:46:40;;;;;;;10.73;6.95;;;6.60;99.90;;;;;;4790384;29;20047;-59
2023/10/23 05:49:06;;;;;;;10.88;6.55;;;6.50;99.90;;;;;;4790971;29;20090;-60
2023/10/23 05:51:31;;;;;;;10.77;6.45;;;6.50;99.90;;;;;;4790571;29;20146;-60
2023/10/23 05:53:57;;;;;;;10.88;6.32;;;6.50;99.90;;;;;;4790298;29;20138;-60
2023/10/23 05:56:23;;;;;;;10.93;6.35;;;6.50;99.90;;;;;;4788955;30;20090;-59
2023/10/23 05:58:50;;;;;;;10.85;6.57;;;6.40;99.90;;;;;;4790151;29;20047;-59
2023/10/23 06:01:17;;;;;;;9.25;6.47;;;6.50;99.90;;;;;;4790060;29;20055;-59
2023/10/23 06:03:43;;;;;;;10.43;6.47;;;6.50;99.90;;;;;;4788584;30;20521;-59
2023/10/23 06:06:09;;;;;;;11.43;6.40;;;6.50;99.90;;;;;;4790021;29;20051;-59
2023/10/23 06:08:35;;;;;;;11.95;6.85;;;6.40;99.90;;;;;;4788903;29;20054;-59
2023/10/23 06:11:01;;;;;;;12.10;6.97;;;6.50;99.90;;;;;;4774062;30;20047;-60
2023/10/23 06:13:27;;;;;;;10.07;6.53;;;6.40;99.90;;;;;;4788889;30;20535;-59
2023/10/23 06:15:53;;;;;;;10.52;6.47;;;6.40;99.90;;;;;;4790567;29;20074;-59
2023/10/23 06:18:19;;;;;;;11.65;6.03;;;6.40;99.90;;;;;;4788758;29;20063;-57
2023/10/23 06:20:45;;;;;;;9.90;6.45;;;6.40;99.90;;;;;;4790180;29;20053;-57
2023/10/23 06:23:11;;;;;;;11.52;6.78;;;6.40;99.90;;;;;;4790522;29;20120;-57
2023/10/23 06:25:36;;;;;;;11.00;6.80;;;6.40;99.90;;;;;;4789593;29;20136;-57
2023/10/23 06:28:03;;;;;;;10.85;6.22;;;6.40;99.90;;;;;;4805006;29;20089;-57
2023/10/23 06:30:29;;;;;;;11.52;6.72;;;6.40;99.90;;;;;;4807923;29;20109;-57
2023/10/23 06:32:55;;;;;;;13.20;6.72;;;6.40;99.90;;;;;;4802896;29;20051;-59
2023/10/23 06:35:21;;;;;;;12.80;6.82;;;6.40;99.90;;;;;;4789921;29;20039;-57
2023/10/23 06:37:48;;;;;;;9.77;6.38;;;6.50;99.90;;;;;;4789682;29;20063;-58
2023/10/23 06:40:14;;;;;;;11.70;7.32;;;6.50;99.90;;;;;;4789995;29;20055;-57
2023/10/23 06:42:40;;;;;;;10.85;6.95;;;6.40;99.90;;;;;;4789494;29;20110;-55
2023/10/23 06:45:06;;;;;;;12.60;7.13;;;6.50;99.90;;;;;;4789269;29;20059;-57
2023/10/23 06:47:32;;;;;;;15.10;7.28;;;6.50;99.90;;;;;;4789381;29;20054;-57
2023/10/23 06:49:59;;;;;;;18.83;7.07;;;6.60;99.90;;;;;;4790032;29;20059;-57
2023/10/23 06:52:25;;;;;;;42.67;25.17;;;6.60;99.90;;;;;;4789527;29;20047;-57
2023/10/23 06:54:51;;;;;;;12.90;8.60;;;6.60;99.90;;;;;;4789766;29;20047;-58
2023/10/23 06:57:16;;;;;;;16.67;10.13;;;6.60;99.90;;;;;;4789545;29;20047;-57
2023/10/23 06:59:42;;;;;;;13.50;7.90;;;6.60;99.90;;;;;;4789641;29;20051;-57
2023/10/23 07:02:09;;;;;;;13.38;7.97;;;6.70;99.90;;;;;;4789780;29;20047;-58
2023/10/23 07:04:34;;;;;;;15.52;9.57;;;6.80;99.90;;;;;;4789755;29;20055;-57
2023/10/23 07:07:00;;;;;;;12.60;7.88;;;6.70;99.90;;;;;;4789864;29;20102;-58
2023/10/23 07:09:26;;;;;;;13.15;7.32;;;6.80;99.90;;;;;;4787597;29;20098;-58
2023/10/23 07:11:52;;;;;;;12.07;7.68;;;6.80;99.90;;;;;;4789966;29;20058;-57
2023/10/23 07:14:18;;;;;;;12.25;7.40;;;6.90;99.90;;;;;;4789665;29;20118;-57
2023/10/23 07:16:45;;;;;;;12.35;7.80;;;7.00;99.90;;;;;;4789728;29;20097;-57
2023/10/23 07:19:11;;;;;;;12.73;7.15;;;7.00;99.90;;;;;;4789920;29;20066;-57
2023/10/23 07:21:37;;;;;;;11.52;7.65;;;7.00;99.90;;;;;;4789075;29;20439;-57
2023/10/23 07:24:03;;;;;;;11.77;7.47;;;7.00;99.90;;;;;;4789261;29;20383;-57
2023/10/23 07:26:29;;;;;;;12.65;7.97;;;7.20;99.90;;;;;;4789116;29;20611;-57
2023/10/23 07:28:55;;;;;;;12.18;8.43;;;7.20;99.90;;;;;;4788680;29;20051;-57
2023/10/23 07:31:21;;;;;;;12.32;8.20;;;7.20;99.90;;;;;;4790947;29;20062;-57
2023/10/23 07:33:47;;;;;;;10.63;7.28;;;7.30;99.90;;;;;;4793124;29;20071;-57
2023/10/23 07:36:14;;;;;;;13.18;8.10;;;7.40;99.90;;;;;;4792180;29;20135;-57
2023/10/23 07:38:41;;;;;;;12.52;8.32;;;7.40;99.90;;;;;;4791798;29;20070;-57
2023/10/23 07:41:08;;;;;;;10.02;7.15;;;7.50;99.90;;;;;;4792892;29;20085;-57
2023/10/23 07:43:33;;;;;;;12.35;8.20;;;7.50;99.90;;;;;;4792449;29;20116;-58
2023/10/23 07:46:04;;;;;;;12.82;7.82;;;7.60;99.90;;;;;;4793236;29;20442;-58
2023/10/23 07:48:30;;;;;;;11.82;8.07;;;7.70;99.90;;;;;;4793004;29;20134;-57
2023/10/23 07:50:58;;;;;;;12.55;8.15;;;7.80;99.90;;;;;;4791167;29;20083;-57
2023/10/23 07:53:23;;;;;;;12.52;8.45;;;7.80;99.90;;;;;;4789349;29;20102;-58
2023/10/23 07:55:49;;;;;;;11.43;7.68;;;8.00;99.90;;;;;;4788678;29;20087;-57
2023/10/23 07:58:15;;;;;;;11.50;7.47;;;8.10;99.90;;;;;;4791740;29;20139;-58
2023/10/23 08:00:43;;;;;;;12.10;7.43;;;8.10;99.90;;;;;;4792152;29;20043;-58
2023/10/23 08:03:10;;;;;;;13.13;8.07;;;8.20;99.90;;;;;;4792382;29;20089;-56
2023/10/23 08:05:36;;;;;;;11.43;7.43;;;8.30;99.90;;;;;;4791252;29;20086;-57
2023/10/23 08:08:03;;;;;;;14.75;8.55;;;8.30;99.90;;;;;;4791198;30;20528;-57
2023/10/23 08:10:29;;;;;;;11.35;8.30;;;8.40;99.90;;;;;;4792602;29;20055;-57
2023/10/23 08:12:54;;;;;;;11.60;8.32;;;8.40;99.90;;;;;;4792332;29;20051;-57
2023/10/23 08:15:20;;;;;;;13.20;8.45;;;8.50;99.90;;;;;;4790655;30;20044;-57
2023/10/23 08:17:46;;;;;;;12.43;8.27;;;8.60;99.90;;;;;;4809000;29;20053;-57
2023/10/23 08:20:12;;;;;;;11.38;7.93;;;8.70;99.90;;;;;;4810533;29;20124;-56
2023/10/23 08:22:37;;;;;;;12.02;8.55;;;8.80;99.90;;;;;;4809991;29;20477;-57
2023/10/23 08:25:04;;;;;;;11.75;8.55;;;8.80;99.90;;;;;;4810168;29;20054;-58
2023/10/23 08:27:30;;;;;;;11.88;8.43;;;8.90;99.90;;;;;;4809999;29;20588;-57
2023/10/23 08:29:56;;;;;;;16.73;8.65;;;8.90;99.90;;;;;;4810226;29;20062;-57
2023/10/23 08:32:22;;;;;;;12.75;8.38;;;9.10;99.90;;;;;;4809044;29;20081;-57
2023/10/23 08:34:47;;;;;;;11.68;7.70;;;9.10;99.90;;;;;;4791454;29;20039;-58
2023/10/23 08:37:14;;;;;;;12.82;8.43;;;9.20;99.90;;;;;;4792312;29;20085;-58
2023/10/23 08:39:40;;;;;;;15.55;9.23;;;9.20;99.90;;;;;;4789847;29;20059;-57
2023/10/23 08:42:05;;;;;;;10.77;7.78;;;9.30;99.90;;;;;;4792191;29;20066;-57
2023/10/23 08:44:31;;;;;;;33.17;18.42;;;9.30;99.90;;;;;;4791194;29;20074;-58
2023/10/23 08:46:58;;;;;;;16.33;10.07;;;9.40;99.90;;;;;;4790311;30;20129;-57
2023/10/23 08:49:23;;;;;;;12.40;8.07;;;9.50;99.90;;;;;;4791010;29;20055;-58
2023/10/23 08:51:50;;;;;;;10.93;7.85;;;9.60;99.90;;;;;;4789630;30;20047;-57
2023/10/23 08:54:18;;;;;;;12.05;7.70;;;9.60;99.90;;;;;;4793605;29;20126;-58
2023/10/23 08:56:44;;;;;;;11.75;7.75;;;9.70;99.90;;;;;;4794385;29;20043;-58
2023/10/23 08:59:13;;;;;;;11.65;8.10;;;9.70;99.90;;;;;;4793158;30;20051;-57
2023/10/23 09:01:40;;;;;;;12.52;7.50;;;9.80;99.90;;;;;;4793879;29;20047;-58
2023/10/23 09:04:07;;;;;;;13.82;7.28;;;9.90;99.90;;;;;;4792240;30;20070;-58
2023/10/23 09:06:33;;;;;;;13.35;8.57;;;9.90;99.90;;;;;;4793304;30;20047;-58
2023/10/23 09:08:59;;;;;;;13.77;8.07;;;10.00;99.90;;;;;;4793493;29;20093;-58
2023/10/23 09:11:45;;;;;;;11.18;7.60;;;10.10;99.90;;;;;;4794561;29;20055;-58
2023/10/23 09:14:22;;;;;;;12.40;7.60;;;10.10;99.90;;;;;;4792580;30;20055;-58
2023/10/23 09:16:48;;;;;;;11.25;7.63;;;10.10;99.90;;;;;;4794306;30;20124;-58
2023/10/23 09:19:27;;;;;;;16.00;7.97;;;10.10;99.90;;;;;;4793952;30;20083;-58
2023/10/23 09:21:54;;;;;;;11.52;8.18;;;10.20;99.90;;;;;;4792870;30;20065;-58
2023/10/23 09:24:22;;;;;;;11.32;7.10;;;10.20;99.90;;;;;;4793981;30;20051;-59
2023/10/23 09:26:48;;;;;;;13.95;8.30;;;10.30;99.90;;;;;;4794035;29;20130;-56
2023/10/23 09:29:14;;;;;;;12.30;8.18;;;10.30;99.90;;;;;;4794865;29;20088;-58
2023/10/23 09:31:43;;;;;;;11.50;7.72;;;10.40;99.90;;;;;;4793218;29;20090;-57
2023/10/23 09:34:09;;;;;;;10.05;7.32;;;10.30;99.90;;;;;;4792597;29;20067;-58
2023/10/23 09:36:35;;;;;;;10.73;6.45;;;10.40;99.90;;;;;;4792810;30;20055;-58
2023/10/23 09:39:02;;;;;;;9.80;6.90;;;10.50;99.90;;;;;;4793449;29;20055;-58
2023/10/23 09:41:28;;;;;;;12.82;6.78;;;10.60;99.90;;;;;;4794586;29;20120;-58
2023/10/23 09:43:56;;;;;;;11.68;7.18;;;10.70;99.90;;;;;;4793896;29;20458;-58
2023/10/23 09:46:25;;;;;;;12.02;7.25;;;10.70;99.90;;;;;;4793761;29;20051;-58
2023/10/23 09:48:52;;;;;;;11.02;6.43;;;10.80;99.90;;;;;;4794488;29;20051;-58
2023/10/23 09:51:21;;;;;;;11.73;7.00;;;10.80;99.90;;;;;;4794386;29;20039;-58
2023/10/23 09:53:59;;;;;;;9.73;6.38;;;10.90;99.90;;;;;;4792670;30;20047;-58
2023/10/23 09:56:33;;;;;;;14.10;6.90;;;10.90;99.90;;;;;;4793586;29;20405;-58
2023/10/23 09:59:00;;;;;;;10.68;6.57;;;11.00;99.90;;;;;;4794567;29;20059;-58
2023/10/23 10:01:40;;;;;;;9.95;5.82;;;11.10;99.90;;;;;;4793922;29;20085;-58
2023/10/23 10:05:01;;;;;;;11.07;6.50;;;11.20;99.90;;;;;;4793273;29;20083;-58
2023/10/23 10:07:31;;;;;;;12.25;7.93;;;11.30;99.90;;;;;;4773580;30;20055;-59
2023/10/23 10:09:58;;;;;;;11.73;6.13;;;11.30;99.90;;;;;;4790259;29;20097;-58
2023/10/23 10:12:25;;;;;;;10.68;6.70;;;11.40;99.90;;;;;;4793628;29;20048;-58
2023/10/23 10:14:52;;;;;;;10.52;6.47;;;11.40;99.90;;;;;;4793277;29;20055;-59
2023/10/23 10:17:19;;;;;;;10.60;5.70;;;11.40;99.90;;;;;;4793640;29;20055;-58
2023/10/23 10:19:46;;;;;;;10.27;6.28;;;11.60;99.90;;;;;;4793851;29;20071;-58
2023/10/23 10:22:23;;;;;;;8.95;5.50;;;11.60;99.90;;;;;;4793574;29;20059;-58
2023/10/23 10:24:49;;;;;;;9.63;5.65;;;11.80;99.90;;;;;;4792572;29;20047;-58
2023/10/23 10:27:15;;;;;;;8.82;5.40;;;11.80;99.90;;;;;;4790189;29;20055;-57
2023/10/23 10:29:41;;;;;;;10.65;5.40;;;11.90;99.90;;;;;;4791625;29;20047;-58
2023/10/23 10:32:11;;;;;;;7.68;4.55;;;12.00;99.90;;;;;;4791759;29;20074;-58
2023/10/23 10:34:46;;;;;;;8.32;4.65;;;12.00;99.90;;;;;;4790956;30;20107;-58
2023/10/23 10:37:12;;;;;;;7.22;3.88;;;12.20;99.90;;;;;;4791530;29;20166;-58
2023/10/23 10:39:50;;;;;;;8.73;4.88;;;12.20;99.90;;;;;;4788897;30;20059;-58
2023/10/23 10:42:21;;;;;;;10.77;4.70;;;12.30;99.90;;;;;;4790512;29;20055;-58
2023/10/23 10:44:54;;;;;;;7.70;4.50;;;12.30;99.90;;;;;;4791861;30;20046;-58
2023/10/23 10:47:21;;;;;;;9.35;5.13;;;12.30;99.90;;;;;;4791250;30;20043;-59
2023/10/23 10:49:47;;;;;;;10.13;5.60;;;12.40;99.90;;;;;;4791761;30;20051;-58
2023/10/23 10:52:27;;;;;;;9.98;4.80;;;12.50;99.90;;;;;;4790844;29;20051;-58
2023/10/23 10:54:59;;;;;;;7.15;4.10;;;12.60;99.90;;;;;;4790086;30;20051;-58
2023/10/23 10:57:26;;;;;;;10.40;5.22;;;12.60;99.90;;;;;;4791032;29;20543;-58
2023/10/23 10:59:56;;;;;;;8.38;4.03;;;12.70;99.90;;;;;;4790788;30;20039;-58
2023/10/23 11:02:23;;;;;;;6.65;3.65;;;12.80;99.90;;;;;;4790657;30;20050;-58
2023/10/23 11:04:49;;;;;;;7.43;3.58;;;12.80;99.90;;;;;;4791839;29;20043;-58
2023/10/23 11:07:19;;;;;;;6.97;3.35;;;12.80;96.80;;;;;;4791358;30;20054;-58
2023/10/23 11:09:44;;;;;;;6.10;2.67;;;12.80;99.90;;;;;;4791517;29;20055;-57
2023/10/23 11:12:10;;;;;;;6.22;3.05;;;12.90;99.90;;;;;;4792619;29;20160;-58
2023/10/23 11:14:38;;;;;;;5.40;2.67;;;12.90;93.80;;;;;;4792522;30;20054;-59
2023/10/23 11:17:05;;;;;;;7.57;3.10;;;12.90;91.20;;;;;;4791416;30;20060;-58
2023/10/23 11:19:31;;;;;;;7.90;3.20;;;12.90;91.10;;;;;;4791665;30;20055;-57
2023/10/23 11:22:11;;;;;;;7.43;3.03;;;12.90;79.00;;;;;;4792874;29;20098;-59
2023/10/23 11:24:37;;;;;;;6.68;3.10;;;13.00;84.80;;;;;;4792824;29;20070;-58
2023/10/23 11:27:04;;;;;;;5.20;2.60;;;13.10;91.20;;;;;;4790494;29;20040;-58
2023/10/23 11:29:44;;;;;;;7.10;3.75;;;13.20;83.30;;;;;;4791038;30;20138;-58
2023/10/23 11:32:14;;;;;;;8.85;3.80;;;13.20;80.90;;;;;;4793471;29;20170;-58
2023/10/23 11:34:40;;;;;;;6.85;2.72;;;13.30;86.00;;;;;;4793560;30;20050;-58
2023/10/23 11:37:08;;;;;;;6.15;2.85;;;13.30;75.20;;;;;;4789285;29;20043;-58
2023/10/23 11:39:35;;;;;;;5.85;2.38;;;13.30;70.80;;;;;;4795059;29;20055;-58
2023/10/23 11:42:02;;;;;;;6.03;2.78;;;13.40;76.70;;;;;;4795463;29;20100;-59
2023/10/23 11:44:29;;;;;;;6.18;2.60;;;13.40;70.10;;;;;;4795970;29;20059;-58
2023/10/23 11:46:57;;;;;;;7.72;2.88;;;13.40;73.60;;;;;;4794289;30;20051;-58
2023/10/23 11:49:23;;;;;;;5.82;2.30;;;13.50;74.80;;;;;;4793599;30;20130;-58
2023/10/23 11:51:49;;;;;;;5.03;1.90;;;13.50;66.90;;;;;;4795792;29;20079;-58
2023/10/23 11:54:19;;;;;;;7.18;2.17;;;13.40;65.20;;;;;;4795154;30;20540;-58
2023/10/23 11:56:45;;;;;;;5.43;2.03;;;13.40;55.30;;;;;;4795886;29;20900;-58
2023/10/23 11:59:18;;;;;;;4.80;1.40;;;13.30;41.90;;;;;;4795785;29;20058;-58
2023/10/23 12:01:45;;;;;;;5.07;1.80;;;13.30;45.20;;;;;;4796073;29;20047;-58
2023/10/23 12:04:11;;;;;;;4.45;1.38;;;13.30;29.70;;;;;;4795544;29;20074;-59
2023/10/23 12:06:38;;;;;;;4.15;1.52;;;13.30;22.00;;;;;;4796209;29;20059;-58
2023/10/23 12:09:06;;;;;;;3.35;1.20;;;13.30;22.80;;;;;;4795514;29;20044;-58
2023/10/23 12:11:32;;;;;;;4.68;1.35;;;13.40;22.70;;;;;;4795546;29;20039;-58
2023/10/23 12:13:59;;;;;;;4.32;1.30;;;13.40;29.40;;;;;;4795406;29;20057;-58
2023/10/23 12:16:28;;;;;;;4.90;1.45;;;13.50;22.80;;;;;;4795475;29;20126;-58
2023/10/23 12:18:54;;;;;;;3.72;1.20;;;13.50;20.40;;;;;;4795470;30;20043;-58
2023/10/23 12:21:20;;;;;;;4.03;0.82;;;13.40;14.50;;;;;;4795264;29;20053;-58
2023/10/23 12:23:46;;;;;;;3.97;1.10;;;13.50;9.90;;;;;;4793757;30;20049;-58
2023/10/23 12:26:12;;;;;;;3.35;1.20;;;13.40;15.30;;;;;;4794827;29;20616;-59
2023/10/23 12:28:38;;;;;;;6.28;1.40;;;13.40;11.90;;;;;;4795928;29;20047;-58
2023/10/23 12:31:04;;;;;;;5.07;1.67;;;13.40;7.40;;;;;;4795861;29;20114;-58
2023/10/23 12:33:31;;;;;;;3.95;1.60;;;13.40;6.40;;;;;;4795925;29;20098;-58
2023/10/23 12:36:00;;;;;;;5.00;1.95;;;13.40;4.60;;;;;;4795708;29;20052;-58
2023/10/23 12:38:26;;;;;;;4.78;1.90;;;13.40;8.50;;;;;;4795150;29;20215;-58
2023/10/23 12:40:52;;;;;;;4.50;1.70;;;13.40;16.60;;;;;;4795179;29;20086;-59
2023/10/23 12:43:17;;;;;;;4.35;1.63;;;13.40;21.10;;;;;;4794462;29;20065;-58
2023/10/23 12:45:43;;;;;;;3.72;1.52;;;13.40;16.60;;;;;;4803146;29;20055;-58
2023/10/23 12:48:10;;;;;;;3.08;1.20;;;13.40;13.60;;;;;;4808773;29;20043;-58